createdAt,value
2023-04-12T00:00:11.446Z,13.50
2023-04-12T00:02:39.583Z,13.50
2023-04-12T00:05:09.412Z,13.30
2023-04-12T00:07:36.119Z,13.40
2023-04-12T00:10:03.216Z,13.30
2023-04-12T00:12:29.849Z,13.30
2023-04-12T00:14:56.557Z,13.20
2023-04-12T00:17:23.362Z,13.10
2023-04-12T00:19:50.094Z,13.10
2023-04-12T00:22:16.883Z,14.30
2023-04-12T00:24:43.681Z,13.00
2023-04-12T00:27:10.561Z,13.10
2023-04-12T00:29:37.339Z,13.50
2023-04-12T00:32:05.672Z,14.00
2023-04-12T00:34:32.604Z,13.00
2023-04-12T00:37:00.571Z,12.90
2023-04-12T00:39:27.471Z,12.90
2023-04-12T00:42:00.773Z,12.80
2023-04-12T00:44:27.472Z,12.80
2023-04-12T00:46:54.405Z,12.80
2023-04-12T00:49:21.262Z,12.70
2023-04-12T00:51:48.016Z,12.80
2023-04-12T00:54:17.986Z,12.70
2023-04-12T00:56:47.151Z,12.60
2023-04-12T00:59:14.317Z,12.60
2023-04-12T01:01:41.346Z,12.60
2023-04-12T01:04:09.227Z,12.70
2023-04-12T01:06:55.988Z,12.60
2023-04-12T01:09:49.477Z,12.60
2023-04-12T01:13:07.080Z,12.50
2023-04-12T01:15:41.244Z,12.50
2023-04-12T01:18:17.364Z,12.50
2023-04-12T01:20:57.550Z,12.30
2023-04-12T01:23:52.768Z,12.40
2023-04-12T01:26:37.162Z,12.40
2023-04-12T01:29:09.904Z,12.40
2023-04-12T01:31:39.720Z,12.40
2023-04-12T01:34:11.353Z,12.30
2023-04-12T01:36:39.800Z,12.30
2023-04-12T01:39:07.332Z,12.30
2023-04-12T01:41:38.564Z,12.30
2023-04-12T01:44:05.804Z,12.30
2023-04-12T01:46:32.691Z,12.30
2023-04-12T01:48:59.401Z,12.30
2023-04-12T01:51:55.532Z,12.30
2023-04-12T01:54:27.718Z,12.30
2023-04-12T01:56:58.370Z,12.20
2023-04-12T01:59:36.228Z,12.30
2023-04-12T02:02:03.833Z,12.30
2023-04-12T02:04:33.561Z,12.20
2023-04-12T02:07:00.767Z,12.20
2023-04-12T02:09:27.501Z,12.20
2023-04-12T02:11:54.275Z,12.20
2023-04-12T02:14:21.840Z,12.20
2023-04-12T02:16:50.568Z,12.20
2023-04-12T02:19:17.395Z,12.20
2023-04-12T02:21:45.525Z,12.30
2023-04-12T02:24:12.684Z,12.30
2023-04-12T02:26:40.071Z,12.20
2023-04-12T02:29:10.144Z,12.20
2023-04-12T02:31:38.949Z,12.20
2023-04-12T02:34:08.545Z,12.20
2023-04-12T02:36:37.761Z,12.20
2023-04-12T02:39:05.141Z,12.20
2023-04-12T02:41:34.467Z,13.10
2023-04-12T02:44:01.178Z,12.20
2023-04-12T02:46:28.511Z,12.20
2023-04-12T02:48:58.247Z,12.20
2023-04-12T02:51:32.715Z,12.10
2023-04-12T02:54:01.261Z,12.20
2023-04-12T02:56:37.973Z,12.20
2023-04-12T02:59:18.423Z,12.10
2023-04-12T03:02:06.784Z,12.20
2023-04-12T03:04:37.378Z,12.00
2023-04-12T03:07:05.313Z,12.20
2023-04-12T03:09:38.778Z,12.10
2023-04-12T03:12:06.136Z,12.20
2023-04-12T03:14:37.569Z,12.20
2023-04-12T03:17:06.255Z,12.10
2023-04-12T03:19:36.604Z,12.20
2023-04-12T03:22:04.587Z,12.20
2023-04-12T03:24:34.776Z,12.10
2023-04-12T03:27:03.787Z,12.20
2023-04-12T03:29:32.795Z,12.10
2023-04-12T03:31:59.825Z,12.10
2023-04-12T03:34:32.276Z,12.10
2023-04-12T03:37:03.707Z,12.00
2023-04-12T03:39:44.816Z,12.00
2023-04-12T03:42:21.576Z,12.10
2023-04-12T03:44:53.273Z,12.00
2023-04-12T03:47:22.068Z,12.10
2023-04-12T03:49:58.771Z,12.70
2023-04-12T03:52:37.125Z,12.00
2023-04-12T03:55:07.660Z,12.10
2023-04-12T03:57:36.054Z,12.00
2023-04-12T04:00:04.480Z,11.90
2023-04-12T04:02:45.048Z,12.00
2023-04-12T04:05:13.141Z,12.00
2023-04-12T04:07:41.266Z,12.00
2023-04-12T04:10:09.599Z,12.00
2023-04-12T04:12:39.525Z,12.00
2023-04-12T04:15:09.047Z,12.00
2023-04-12T04:17:35.832Z,12.00
2023-04-12T04:20:05.345Z,9.90
2023-04-12T04:22:33.598Z,12.10
2023-04-12T04:25:03.039Z,12.00
2023-04-12T04:27:34.229Z,12.10
2023-04-12T04:30:02.828Z,12.10
2023-04-12T04:32:31.648Z,12.10
2023-04-12T04:34:59.815Z,12.00
2023-04-12T04:37:35.276Z,11.90
2023-04-12T04:40:08.028Z,12.00
2023-04-12T04:42:39.705Z,11.90
2023-04-12T04:45:13.757Z,11.80
2023-04-12T04:47:43.405Z,11.90
2023-04-12T04:50:10.573Z,11.90
2023-04-12T04:52:39.251Z,12.00
2023-04-12T04:55:11.391Z,11.80
2023-04-12T04:57:40.318Z,11.90
2023-04-12T05:00:11.501Z,12.10
2023-04-12T05:02:43.675Z,12.00
2023-04-12T05:05:13.892Z,12.00
2023-04-12T05:07:40.750Z,12.00
2023-04-12T05:10:08.116Z,12.00
2023-04-12T05:12:38.632Z,12.10
2023-04-12T05:15:19.921Z,12.00
2023-04-12T05:17:46.619Z,12.00
2023-04-12T05:20:13.482Z,12.00
2023-04-12T05:22:40.366Z,12.00
2023-04-12T05:25:07.480Z,12.00
2023-04-12T05:27:40.068Z,12.10
2023-04-12T05:30:09.284Z,12.00
2023-04-12T05:32:36.168Z,12.10
2023-04-12T05:35:03.523Z,12.20
2023-04-12T05:37:30.314Z,12.10
2023-04-12T05:39:57.126Z,12.20
2023-04-12T05:42:23.809Z,12.20
2023-04-12T05:44:50.855Z,12.20
2023-04-12T05:47:20.167Z,12.20
2023-04-12T05:49:47.757Z,12.20
2023-04-12T05:52:14.495Z,12.20
2023-04-12T05:54:41.827Z,12.30
2023-04-12T05:57:12.489Z,12.40
2023-04-12T05:59:39.291Z,12.40
2023-04-12T06:02:07.309Z,12.50
2023-04-12T06:04:48.575Z,12.40
2023-04-12T06:07:18.882Z,12.50
2023-04-12T06:09:46.043Z,12.40
2023-04-12T06:12:12.839Z,12.40
2023-04-12T06:14:40.269Z,12.30
2023-04-12T06:17:07.941Z,12.50
2023-04-12T06:19:34.638Z,12.90
2023-04-12T06:22:01.415Z,12.60
2023-04-12T06:24:28.751Z,12.70
2023-04-12T06:26:55.868Z,12.70
2023-04-12T06:29:22.700Z,12.80
2023-04-12T06:31:49.513Z,12.90
2023-04-12T06:34:16.296Z,12.90
2023-04-12T06:36:46.318Z,12.90
2023-04-12T06:39:14.042Z,12.90
2023-04-12T06:41:40.900Z,13.00
2023-04-12T06:44:07.590Z,13.00
2023-04-12T06:46:34.296Z,13.00
2023-04-12T06:49:01.316Z,13.10
2023-04-12T06:51:28.255Z,13.20
2023-04-12T06:53:56.135Z,13.10
2023-04-12T06:56:22.863Z,13.10
2023-04-12T06:58:49.886Z,13.20
2023-04-12T07:01:17.733Z,13.20
2023-04-12T07:03:44.846Z,13.30
2023-04-12T07:06:24.188Z,13.40
2023-04-12T07:08:52.530Z,13.50
2023-04-12T07:11:21.750Z,13.60
2023-04-12T07:13:49.586Z,13.70
2023-04-12T07:16:17.674Z,13.70
2023-04-12T07:18:44.631Z,13.60
2023-04-12T07:21:14.535Z,14.00
2023-04-12T07:23:41.368Z,14.30
2023-04-12T07:26:08.279Z,13.70
2023-04-12T07:28:36.215Z,13.80
2023-04-12T07:31:06.361Z,13.80
2023-04-12T07:33:34.866Z,13.80
2023-04-12T07:36:02.269Z,13.80
2023-04-12T07:38:28.995Z,13.90
2023-04-12T07:40:56.925Z,13.90
2023-04-12T07:43:23.768Z,14.00
2023-04-12T07:45:50.777Z,14.10
2023-04-12T07:48:17.863Z,14.20
2023-04-12T07:50:44.534Z,14.20
2023-04-12T07:53:28.528Z,14.20
2023-04-12T07:55:55.942Z,14.40
2023-04-12T07:58:24.165Z,14.30
2023-04-12T08:00:51.384Z,14.40
2023-04-12T08:03:19.236Z,14.60
2023-04-12T08:05:47.188Z,14.60
2023-04-12T08:08:14.093Z,14.70
2023-04-12T08:10:41.326Z,14.70
2023-04-12T08:13:08.617Z,14.60
2023-04-12T08:15:35.355Z,14.70
2023-04-12T08:18:02.683Z,15.00
2023-04-12T08:20:30.161Z,15.10
2023-04-12T08:22:57.085Z,15.30
2023-04-12T08:25:24.470Z,15.40
2023-04-12T08:27:51.531Z,15.70
2023-04-12T08:30:18.872Z,15.90
2023-04-12T08:32:45.871Z,16.10
2023-04-12T08:35:12.711Z,16.20
2023-04-12T08:37:39.382Z,16.20
2023-04-12T08:40:08.039Z,16.20
2023-04-12T08:42:36.966Z,16.20
2023-04-12T08:45:08.759Z,16.20
2023-04-12T08:47:43.699Z,16.20
2023-04-12T08:50:14.093Z,16.20
2023-04-12T08:52:42.763Z,16.10
2023-04-12T08:55:11.051Z,17.10
2023-04-12T08:57:41.136Z,16.00
2023-04-12T09:00:09.490Z,16.00
2023-04-12T09:02:38.195Z,16.10
2023-04-12T09:05:06.633Z,16.10
2023-04-12T09:07:33.809Z,16.30
2023-04-12T09:10:00.685Z,16.30
2023-04-12T09:12:27.474Z,16.40
2023-04-12T09:15:13.426Z,16.50
2023-04-12T09:17:41.602Z,16.40
2023-04-12T09:20:17.919Z,16.40
2023-04-12T09:22:46.564Z,16.50
2023-04-12T09:25:14.844Z,16.70
2023-04-12T09:27:52.577Z,16.80
2023-04-12T09:30:20.626Z,17.00
2023-04-12T09:32:50.720Z,17.80
2023-04-12T09:35:17.647Z,17.90
2023-04-12T09:37:44.334Z,17.20
2023-04-12T09:40:11.409Z,17.20
2023-04-12T09:42:53.600Z,17.20
2023-04-12T09:45:24.367Z,17.20
2023-04-12T09:47:52.549Z,17.30
2023-04-12T09:50:23.126Z,17.40
2023-04-12T09:52:50.748Z,17.50
2023-04-12T09:55:17.994Z,17.40
2023-04-12T09:57:45.499Z,17.50
2023-04-12T10:00:20.502Z,17.30
2023-04-12T10:02:52.998Z,17.40
2023-04-12T10:05:23.430Z,17.40
2023-04-12T10:07:50.749Z,17.40
2023-04-12T10:10:18.907Z,17.30
2023-04-12T10:12:47.477Z,17.30
2023-04-12T10:15:18.598Z,17.20
2023-04-12T10:17:47.490Z,17.00
2023-04-12T10:20:16.854Z,17.10
2023-04-12T10:22:46.695Z,17.30
2023-04-12T10:25:15.493Z,17.40
2023-04-12T10:27:44.208Z,17.60
2023-04-12T10:30:25.900Z,17.90
2023-04-12T10:33:05.289Z,18.00
2023-04-12T10:35:55.516Z,17.90
2023-04-12T10:38:26.649Z,18.10
2023-04-12T10:41:13.114Z,18.10
2023-04-12T10:43:41.412Z,18.20
2023-04-12T10:46:08.497Z,18.60
2023-04-12T10:48:39.022Z,18.00
2023-04-12T10:51:30.737Z,17.90
2023-04-12T10:54:07.708Z,17.70
2023-04-12T10:56:39.227Z,17.30
2023-04-12T10:59:13.148Z,17.00
2023-04-12T11:02:02.414Z,16.80
2023-04-12T11:04:29.494Z,16.50
2023-04-12T11:07:11.991Z,16.30
2023-04-12T11:09:42.569Z,16.20
2023-04-12T11:12:13.933Z,16.40
2023-04-12T11:14:51.592Z,16.80
2023-04-12T11:17:24.322Z,17.00
2023-04-12T11:19:53.829Z,17.20
2023-04-12T11:22:22.372Z,17.40
2023-04-12T11:24:54.539Z,17.70
2023-04-12T11:27:22.895Z,17.70
2023-04-12T11:29:55.653Z,17.70
2023-04-12T11:32:24.563Z,18.00
2023-04-12T11:34:51.387Z,18.00
2023-04-12T11:37:22.253Z,17.80
2023-04-12T11:39:52.643Z,17.80
2023-04-12T11:42:23.369Z,17.80
2023-04-12T11:44:56.373Z,18.00
2023-04-12T11:47:25.936Z,17.70
2023-04-12T11:49:54.882Z,18.40
2023-04-12T11:52:27.268Z,18.00
2023-04-12T11:54:56.435Z,17.80
2023-04-12T11:57:23.364Z,17.90
2023-04-12T11:59:50.265Z,17.90
2023-04-12T12:02:23.277Z,18.70
2023-04-12T12:04:52.051Z,18.00
2023-04-12T12:07:21.328Z,18.20
2023-04-12T12:09:49.937Z,18.70
2023-04-12T12:12:16.935Z,17.90
2023-04-12T12:14:45.062Z,17.80
2023-04-12T12:17:15.167Z,17.80
2023-04-12T12:19:43.870Z,18.10
2023-04-12T12:22:10.580Z,18.40
2023-04-12T12:24:41.248Z,19.00
2023-04-12T12:27:10.344Z,19.30
2023-04-12T12:29:38.529Z,19.50
2023-04-12T12:32:13.742Z,19.70
2023-04-12T12:34:58.749Z,20.20
2023-04-12T12:37:27.477Z,19.50
2023-04-12T12:40:13.358Z,19.70
2023-04-12T12:42:46.956Z,20.00
2023-04-12T12:45:14.700Z,19.90
2023-04-12T12:47:52.955Z,19.70
2023-04-12T12:50:24.966Z,19.30
2023-04-12T12:52:53.090Z,18.20
2023-04-12T12:55:21.337Z,18.80
2023-04-12T12:58:02.258Z,18.60
2023-04-12T13:00:33.332Z,19.10
2023-04-12T13:03:00.344Z,19.20
2023-04-12T13:05:27.328Z,18.10
2023-04-12T13:07:54.028Z,18.20
2023-04-12T13:10:20.910Z,18.10
2023-04-12T13:12:47.632Z,18.10
2023-04-12T13:17:44.107Z,17.90
2023-04-12T13:20:10.951Z,17.90
2023-04-12T13:22:37.776Z,18.20
2023-04-12T13:25:04.818Z,18.30
2023-04-12T13:27:31.673Z,18.20
2023-04-12T13:29:58.461Z,18.10
2023-04-12T13:32:25.224Z,18.00
2023-04-12T13:34:52.124Z,18.00
2023-04-12T13:37:18.769Z,17.90
2023-04-12T13:39:45.557Z,17.90
2023-04-12T13:42:14.368Z,17.90
2023-04-12T13:44:41.083Z,17.70
2023-04-12T13:47:07.857Z,17.60
2023-04-12T13:49:34.573Z,17.40
2023-04-12T13:52:02.791Z,17.40
2023-04-12T13:54:30.561Z,18.20
2023-04-12T13:56:58.166Z,17.70
2023-04-12T13:59:26.582Z,18.10
2023-04-12T14:01:54.176Z,18.30
2023-04-12T14:04:21.085Z,18.30
2023-04-12T14:06:48.063Z,18.50
2023-04-12T14:09:28.189Z,19.00
2023-04-12T14:11:56.464Z,19.50
2023-04-12T14:14:24.339Z,19.30
2023-04-12T14:16:53.369Z,19.60
2023-04-12T14:19:21.139Z,19.50
2023-04-12T14:21:48.821Z,19.60
2023-04-12T14:24:16.777Z,19.20
2023-04-12T14:26:43.630Z,18.90
2023-04-12T14:29:10.350Z,18.30
2023-04-12T14:31:38.008Z,17.90
2023-04-12T14:34:05.221Z,17.50
2023-04-12T14:36:33.267Z,17.30
2023-04-12T14:39:01.467Z,17.20
2023-04-12T14:41:28.291Z,17.00
2023-04-12T14:43:55.019Z,16.90
2023-04-12T14:46:22.093Z,17.00
2023-04-12T14:48:48.866Z,17.10
2023-04-12T14:51:15.926Z,17.20
2023-04-12T14:53:43.148Z,17.50
2023-04-12T14:56:25.335Z,18.40
2023-04-12T14:58:55.177Z,19.00
2023-04-12T15:01:23.619Z,19.30
2023-04-12T15:03:51.905Z,19.30
2023-04-12T15:06:20.433Z,19.70
2023-04-12T15:08:49.350Z,19.40
2023-04-12T15:11:18.933Z,19.20
2023-04-12T15:13:45.675Z,18.90
2023-04-12T15:16:12.492Z,18.80
2023-04-12T15:18:41.525Z,18.50
2023-04-12T15:21:09.424Z,18.40
2023-04-12T15:23:36.624Z,18.60
2023-04-12T15:26:03.766Z,18.30
2023-04-12T15:28:32.788Z,18.30
2023-04-12T15:30:59.751Z,18.10
2023-04-12T15:33:26.489Z,17.90
2023-04-12T15:35:57.043Z,18.00
2023-04-12T15:38:24.767Z,18.20
2023-04-12T15:40:56.373Z,18.50
2023-04-12T15:43:24.075Z,18.50
2023-04-12T15:45:54.891Z,18.30
2023-04-12T15:48:23.229Z,18.10
2023-04-12T15:50:51.069Z,18.00
2023-04-12T15:53:20.656Z,18.30
2023-04-12T15:55:47.603Z,18.70
2023-04-12T15:58:14.716Z,19.40
2023-04-12T16:00:42.159Z,19.80
2023-04-12T16:03:09.660Z,20.30
2023-04-12T16:05:36.782Z,20.50
2023-04-12T16:08:03.889Z,20.90
2023-04-12T16:10:30.622Z,21.50
2023-04-12T16:12:57.844Z,21.00
2023-04-12T16:15:25.033Z,21.30
2023-04-12T16:17:54.397Z,21.20
2023-04-12T16:20:22.334Z,20.70
2023-04-12T16:22:55.874Z,20.30
2023-04-12T16:25:24.300Z,20.20
2023-04-12T16:27:51.893Z,20.10
2023-04-12T16:30:18.716Z,20.80
2023-04-12T16:32:49.085Z,19.40
2023-04-12T16:35:16.431Z,19.00
2023-04-12T16:37:44.573Z,18.90
2023-04-12T16:40:14.841Z,18.40
2023-04-12T16:42:42.650Z,18.20
2023-04-12T16:45:11.885Z,17.90
2023-04-12T16:47:39.366Z,17.90
2023-04-12T16:50:08.745Z,17.80
2023-04-12T16:52:36.680Z,17.90
2023-04-12T16:55:04.685Z,18.00
2023-04-12T16:57:32.760Z,17.30
2023-04-12T16:59:59.568Z,17.00
2023-04-12T17:02:26.560Z,16.90
2023-04-12T17:04:53.416Z,16.40
2023-04-12T17:07:20.079Z,16.40
2023-04-12T17:09:46.784Z,16.10
2023-04-12T17:12:13.655Z,15.90
2023-04-12T17:14:40.612Z,15.80
2023-04-12T17:17:07.435Z,15.50
2023-04-12T17:19:34.164Z,15.50
2023-04-12T17:22:01.036Z,15.30
2023-04-12T17:24:29.197Z,15.30
2023-04-12T17:26:56.198Z,15.30
2023-04-12T17:29:23.002Z,15.20
2023-04-12T17:31:53.153Z,15.10
2023-04-12T17:34:21.788Z,15.10
2023-04-12T17:36:48.918Z,15.00
2023-04-12T17:39:16.098Z,15.00
2023-04-12T17:41:42.879Z,15.00
2023-04-12T17:44:09.637Z,14.90
2023-04-12T17:46:36.854Z,14.80
2023-04-12T17:49:05.587Z,14.80
2023-04-12T17:51:34.083Z,14.70
2023-04-12T17:54:03.469Z,14.60
2023-04-12T17:56:30.160Z,14.40
2023-04-12T17:58:57.338Z,14.40
2023-04-12T18:01:24.467Z,14.20
2023-04-12T18:03:51.419Z,13.80
2023-04-12T18:06:20.349Z,14.00
2023-04-12T18:08:47.196Z,13.90
2023-04-12T18:11:14.420Z,13.80
2023-04-12T18:13:41.907Z,13.80
2023-04-12T18:16:08.757Z,13.80
2023-04-12T18:18:36.398Z,13.60
2023-04-12T18:21:06.659Z,13.50
2023-04-12T18:23:33.456Z,13.50
2023-04-12T18:26:00.357Z,13.40
2023-04-12T18:28:27.543Z,14.10
2023-04-12T18:30:56.720Z,13.40
2023-04-12T18:33:23.965Z,13.20
2023-04-12T18:35:51.311Z,13.20
2023-04-12T18:38:18.618Z,13.10
2023-04-12T18:40:45.485Z,12.90
2023-04-12T18:43:12.232Z,13.00
2023-04-12T18:45:41.900Z,12.90
2023-04-12T18:48:09.196Z,12.90
2023-04-12T18:50:39.227Z,12.80
2023-04-12T18:53:07.713Z,13.40
2023-04-12T18:55:34.471Z,12.70
2023-04-12T18:58:01.331Z,12.60
2023-04-12T19:00:28.602Z,12.50
2023-04-12T19:02:55.623Z,12.50
2023-04-12T19:05:22.456Z,12.40
2023-04-12T19:07:50.645Z,12.40
2023-04-12T19:10:17.471Z,12.40
2023-04-12T19:12:44.717Z,12.20
2023-04-12T19:15:11.879Z,12.30
2023-04-12T19:17:39.430Z,12.30
2023-04-12T19:20:08.832Z,12.20
2023-04-12T19:22:36.223Z,12.30
2023-04-12T19:25:03.232Z,12.20
2023-04-12T19:27:29.969Z,12.50
2023-04-12T19:29:57.565Z,12.10
2023-04-12T19:32:24.468Z,12.10
2023-04-12T19:34:51.546Z,12.10
2023-04-12T19:37:18.267Z,12.10
2023-04-12T19:39:45.445Z,12.10
2023-04-12T19:42:14.309Z,12.70
2023-04-12T19:44:41.125Z,12.00
2023-04-12T19:47:07.994Z,11.90
2023-04-12T19:49:36.055Z,12.60
2023-04-12T19:52:05.591Z,11.80
2023-04-12T19:54:33.375Z,11.70
2023-04-12T19:57:00.096Z,11.80
2023-04-12T19:59:30.669Z,11.70
2023-04-12T20:01:58.104Z,11.70
2023-04-12T20:04:25.672Z,11.70
2023-04-12T20:06:52.464Z,11.60
2023-04-12T20:09:19.822Z,11.40
2023-04-12T20:11:46.661Z,11.50
2023-04-12T20:14:13.443Z,11.30
2023-04-12T20:16:43.723Z,11.50
2023-04-12T20:19:10.987Z,11.50
2023-04-12T20:21:38.925Z,11.50
2023-04-12T20:24:08.168Z,11.60
2023-04-12T20:26:37.463Z,11.50
2023-04-12T20:29:07.903Z,11.40
2023-04-12T20:31:34.642Z,11.40
2023-04-12T20:34:01.415Z,11.60
2023-04-12T20:36:29.539Z,11.30
2023-04-12T20:38:56.355Z,11.80
2023-04-12T20:41:24.282Z,11.40
2023-04-12T20:43:51.087Z,11.40
2023-04-12T20:46:25.680Z,11.30
2023-04-12T20:48:56.661Z,11.30
2023-04-12T20:51:23.954Z,11.30
2023-04-12T20:53:51.568Z,11.30
2023-04-12T20:56:21.060Z,11.30
2023-04-12T20:58:49.706Z,11.30
2023-04-12T21:01:16.605Z,11.20
2023-04-12T21:03:44.101Z,11.30
2023-04-12T21:06:11.101Z,11.30
2023-04-12T21:08:38.885Z,11.30
2023-04-12T21:11:06.031Z,11.20
2023-04-12T21:13:33.349Z,11.20
2023-04-12T21:16:02.285Z,11.20
2023-04-12T21:18:32.016Z,11.20
2023-04-12T21:20:59.273Z,11.20
2023-04-12T21:23:26.267Z,11.20
2023-04-12T21:25:52.908Z,11.20
2023-04-12T21:28:20.704Z,11.20
2023-04-12T21:30:49.428Z,11.20
2023-04-12T21:33:24.397Z,11.20
2023-04-12T21:35:55.116Z,11.30
2023-04-12T21:38:24.591Z,11.20
2023-04-12T21:40:51.507Z,11.20
2023-04-12T21:43:18.693Z,11.30
2023-04-12T21:45:46.016Z,11.30
2023-04-12T21:48:14.278Z,11.30
2023-04-12T21:50:41.793Z,11.20
2023-04-12T21:53:08.950Z,11.30
2023-04-12T21:55:36.241Z,11.30
2023-04-12T21:58:03.684Z,11.40
2023-04-12T22:00:32.047Z,11.40
2023-04-12T22:02:59.564Z,11.50
2023-04-12T22:05:27.873Z,11.40
2023-04-12T22:07:55.187Z,11.50
2023-04-12T22:10:21.854Z,11.50
2023-04-12T22:12:49.964Z,11.50
2023-04-12T22:15:17.244Z,11.50
2023-04-12T22:17:45.077Z,11.60
2023-04-12T22:20:13.087Z,11.60
2023-04-12T22:22:40.596Z,11.70
2023-04-12T22:25:10.013Z,11.70
2023-04-12T22:27:38.661Z,11.70
2023-04-12T22:30:07.291Z,11.70
2023-04-12T22:32:34.733Z,11.70
2023-04-12T22:35:08.284Z,11.80
2023-04-12T22:37:41.142Z,11.70
2023-04-12T22:40:12.218Z,11.60
2023-04-12T22:42:46.398Z,11.60
2023-04-12T22:45:17.532Z,11.50
2023-04-12T22:47:45.424Z,11.40
2023-04-12T22:50:12.896Z,11.40
2023-04-12T22:52:40.226Z,11.40
2023-04-12T22:55:09.083Z,11.30
2023-04-12T22:57:36.434Z,11.30
2023-04-12T23:00:07.315Z,11.30
2023-04-12T23:02:34.181Z,11.30
2023-04-12T23:05:02.390Z,11.30
2023-04-12T23:07:30.180Z,11.30
2023-04-12T23:09:57.762Z,11.30
2023-04-12T23:12:24.799Z,11.30
2023-04-12T23:14:55.335Z,11.30
2023-04-12T23:17:22.474Z,11.20
2023-04-12T23:19:51.660Z,11.10
2023-04-12T23:22:55.013Z,11.10
2023-04-12T23:25:23.551Z,10.90
2023-04-12T23:27:50.942Z,11.00
2023-04-12T23:30:18.435Z,10.90
2023-04-12T23:32:45.261Z,10.90
2023-04-12T23:35:12.174Z,11.80
2023-04-12T23:37:40.973Z,10.90
2023-04-12T23:40:14.070Z,11.50
2023-04-12T23:42:42.814Z,10.90
2023-04-12T23:45:13.513Z,10.70
2023-04-12T23:47:40.285Z,10.90
2023-04-12T23:50:07.509Z,10.80
2023-04-12T23:52:34.290Z,10.90
2023-04-12T23:55:02.464Z,10.90
2023-04-12T23:57:29.610Z,10.80
2023-04-12T23:59:56.874Z,10.90
